createdAt,value
2022-11-12T00:02:21.032Z,10.73
2022-11-12T00:05:06.666Z,26.50
2022-11-12T00:07:52.093Z,12.33
2022-11-12T00:10:37.288Z,9.80
2022-11-12T00:13:22.807Z,9.87
2022-11-12T00:16:08.212Z,10.23
2022-11-12T00:18:53.543Z,14.63
2022-11-12T00:21:38.882Z,5.50
2022-11-12T00:24:24.163Z,5.70
2022-11-12T00:27:09.721Z,11.13
2022-11-12T00:29:55.168Z,32.73
2022-11-12T00:32:40.794Z,49.70
2022-11-12T00:35:25.791Z,15.00
2022-11-12T00:38:11.174Z,8.43
2022-11-12T00:40:59.727Z,7.87
2022-11-12T00:43:44.926Z,7.03
2022-11-12T00:46:30.769Z,6.53
2022-11-12T00:49:16.739Z,9.43
2022-11-12T00:52:01.970Z,5.43
2022-11-12T00:54:47.423Z,6.07
2022-11-12T00:57:32.954Z,4.53
2022-11-12T01:00:21.355Z,5.13
2022-11-12T01:03:06.900Z,19.97
2022-11-12T01:05:52.311Z,5.27
2022-11-12T01:08:38.325Z,26.30
2022-11-12T01:11:28.846Z,7.67
2022-11-12T01:14:14.295Z,5.73
2022-11-12T01:16:59.417Z,7.30
2022-11-12T01:19:44.847Z,13.27
2022-11-12T01:22:30.225Z,12.00
2022-11-12T01:25:15.880Z,8.07
2022-11-12T01:28:00.914Z,9.97
2022-11-12T01:30:46.283Z,6.00
2022-11-12T01:33:31.700Z,8.37
2022-11-12T01:36:18.061Z,10.60
2022-11-12T01:39:08.578Z,7.13
2022-11-12T01:41:54.306Z,7.30
2022-11-12T01:44:44.584Z,12.47
2022-11-12T01:47:34.052Z,12.43
2022-11-12T01:50:27.682Z,7.10
2022-11-12T01:53:14.177Z,22.40
2022-11-12T01:56:00.840Z,7.30
2022-11-12T01:58:49.313Z,7.67
2022-11-12T02:01:37.325Z,8.07
2022-11-12T02:04:22.856Z,6.67
2022-11-12T02:07:09.771Z,11.07
2022-11-12T02:09:55.291Z,5.63
2022-11-12T02:13:16.757Z,9.07
2022-11-12T02:16:04.587Z,8.03
2022-11-12T02:18:50.136Z,10.53
2022-11-12T02:21:36.103Z,10.07
2022-11-12T02:24:21.256Z,9.67
2022-11-12T02:27:07.499Z,6.53
2022-11-12T02:29:52.978Z,6.77
2022-11-12T02:32:38.358Z,7.93
2022-11-12T02:35:23.742Z,8.63
2022-11-12T02:38:09.550Z,15.37
2022-11-12T02:40:54.674Z,9.73
2022-11-12T02:43:41.153Z,18.03
2022-11-12T02:46:26.264Z,8.03
2022-11-12T02:49:11.380Z,7.40
2022-11-12T02:51:56.696Z,8.73
2022-11-12T02:54:41.874Z,8.87
2022-11-12T02:57:27.573Z,14.57
2022-11-12T03:00:14.010Z,8.20
2022-11-12T03:02:59.399Z,6.33
2022-11-12T03:05:46.554Z,6.87
2022-11-12T03:08:32.011Z,7.23
2022-11-12T03:11:18.062Z,8.07
2022-11-12T03:14:03.513Z,6.53
2022-11-12T03:16:48.908Z,19.50
2022-11-12T03:19:34.086Z,6.97
2022-11-12T03:22:19.495Z,7.87
2022-11-12T03:25:05.813Z,13.27
2022-11-12T03:28:17.338Z,7.70
2022-11-12T03:31:02.855Z,21.27
2022-11-12T03:33:48.205Z,7.27
2022-11-12T03:36:33.381Z,6.83
2022-11-12T03:39:18.849Z,7.20
2022-11-12T03:42:04.696Z,10.83
2022-11-12T03:44:50.203Z,7.53
2022-11-12T03:47:35.804Z,6.33
2022-11-12T03:50:22.959Z,9.13
2022-11-12T03:53:08.302Z,10.07
2022-11-12T03:55:53.496Z,18.60
2022-11-12T03:58:38.804Z,12.13
2022-11-12T04:01:23.893Z,14.27
2022-11-12T04:04:09.933Z,14.67
2022-11-12T04:07:13.653Z,9.33
2022-11-12T04:09:59.056Z,7.70
2022-11-12T04:13:02.754Z,9.50
2022-11-12T04:16:08.129Z,8.37
2022-11-12T04:19:14.932Z,9.30
2022-11-12T04:22:09.213Z,17.83
2022-11-12T04:25:12.838Z,10.63
2022-11-12T04:27:58.134Z,26.43
2022-11-12T04:30:43.488Z,11.23
2022-11-12T04:33:29.112Z,19.57
2022-11-12T04:36:14.204Z,19.90
2022-11-12T04:38:59.749Z,10.57
2022-11-12T04:42:03.705Z,8.93
2022-11-12T04:45:02.331Z,8.07
2022-11-12T04:47:47.433Z,11.70
2022-11-12T04:50:33.074Z,8.20
2022-11-12T04:53:18.623Z,38.47
2022-11-12T04:56:03.969Z,14.97
2022-11-12T04:58:49.312Z,12.53
2022-11-12T05:01:34.469Z,19.63
2022-11-12T05:04:20.064Z,5.47
2022-11-12T05:07:05.792Z,9.40
2022-11-12T05:09:50.897Z,5.97
2022-11-12T05:12:36.815Z,7.13
2022-11-12T05:15:22.349Z,11.63
2022-11-12T05:18:07.460Z,19.07
2022-11-12T05:20:53.464Z,18.43
2022-11-12T05:23:38.437Z,8.10
2022-11-12T05:26:23.882Z,5.83
2022-11-12T05:29:09.193Z,5.70
2022-11-12T05:31:55.323Z,6.03
2022-11-12T05:34:41.022Z,5.80
2022-11-12T05:37:26.413Z,18.07
2022-11-12T05:40:12.361Z,10.97
2022-11-12T05:42:57.499Z,11.03
2022-11-12T05:45:44.157Z,15.23
2022-11-12T05:48:29.975Z,12.43
2022-11-12T05:51:15.602Z,5.93
2022-11-12T05:54:01.479Z,15.77
2022-11-12T05:56:47.406Z,9.67
2022-11-12T05:59:32.751Z,9.40
2022-11-12T06:02:18.053Z,16.93
2022-11-12T06:05:03.601Z,21.17
2022-11-12T06:07:48.872Z,7.03
2022-11-12T06:10:34.762Z,10.03
2022-11-12T06:13:22.914Z,10.03
2022-11-12T06:16:08.739Z,8.50
2022-11-12T06:18:53.956Z,6.33
2022-11-12T06:21:39.252Z,7.30
2022-11-12T06:24:27.569Z,11.13
2022-11-12T06:27:15.839Z,10.17
2022-11-12T06:30:01.936Z,7.30
2022-11-12T06:32:48.199Z,5.60
2022-11-12T06:35:33.325Z,9.37
2022-11-12T06:38:18.726Z,6.27
2022-11-12T06:41:05.057Z,6.17
2022-11-12T06:43:50.342Z,16.90
2022-11-12T06:46:35.741Z,6.63
2022-11-12T06:49:20.731Z,5.97
2022-11-12T06:52:06.151Z,5.87
2022-11-12T06:54:51.419Z,6.87
2022-11-12T06:57:36.841Z,9.37
2022-11-12T07:00:22.033Z,8.00
2022-11-12T07:03:08.304Z,7.27
2022-11-12T07:05:53.441Z,6.93
2022-11-12T07:08:39.320Z,7.83
2022-11-12T07:11:24.726Z,11.20
2022-11-12T07:14:09.873Z,6.40
2022-11-12T07:16:55.566Z,7.67
2022-11-12T07:19:40.898Z,6.27
2022-11-12T07:22:25.952Z,7.23
2022-11-12T07:25:11.544Z,7.20
2022-11-12T07:27:57.136Z,11.20
2022-11-12T07:30:42.452Z,9.17
2022-11-12T07:33:28.535Z,10.10
2022-11-12T07:36:15.508Z,11.33
2022-11-12T07:39:00.802Z,7.40
2022-11-12T07:41:47.406Z,9.33
2022-11-12T07:44:32.656Z,9.83
2022-11-12T07:47:18.132Z,6.17
2022-11-12T07:50:03.365Z,6.43
2022-11-12T07:52:48.500Z,8.43
2022-11-12T07:55:33.760Z,6.20
2022-11-12T07:58:18.805Z,7.93
2022-11-12T08:01:12.422Z,7.70
2022-11-12T08:04:02.246Z,5.93
2022-11-12T08:06:47.557Z,5.27
2022-11-12T08:09:33.139Z,10.73
2022-11-12T08:12:18.583Z,5.13
2022-11-12T08:15:04.446Z,4.20
2022-11-12T08:17:50.198Z,5.43
2022-11-12T08:20:35.740Z,4.40
2022-11-12T08:23:21.069Z,4.60
2022-11-12T08:26:08.841Z,4.63
2022-11-12T08:28:54.377Z,5.47
2022-11-12T08:31:39.540Z,5.77
2022-11-12T08:34:25.080Z,7.27
2022-11-12T08:37:10.201Z,4.47
2022-11-12T08:39:55.693Z,3.90
2022-11-12T08:42:40.916Z,4.50
2022-11-12T08:45:26.995Z,4.40
2022-11-12T08:48:15.158Z,3.97
2022-11-12T08:51:04.947Z,6.63
2022-11-12T08:53:50.325Z,5.57
2022-11-12T08:56:35.790Z,5.93
2022-11-12T08:59:21.339Z,5.73
2022-11-12T09:02:12.807Z,5.43
2022-11-12T09:04:57.971Z,9.23
2022-11-12T09:07:50.093Z,6.17
2022-11-12T09:10:36.988Z,5.67
2022-11-12T09:13:22.254Z,7.40
2022-11-12T09:16:10.031Z,6.47
2022-11-12T09:18:55.272Z,7.87
2022-11-12T09:21:40.584Z,9.47
2022-11-12T09:24:25.687Z,7.07
2022-11-12T09:27:11.058Z,7.10
2022-11-12T09:29:56.505Z,6.17
2022-11-12T09:32:43.000Z,8.40
2022-11-12T09:35:28.051Z,7.10
2022-11-12T09:38:17.843Z,8.17
2022-11-12T09:41:13.471Z,6.63
2022-11-12T09:44:05.038Z,7.00
2022-11-12T09:47:02.744Z,7.87
2022-11-12T09:50:16.149Z,7.23
2022-11-12T09:53:16.723Z,13.63
2022-11-12T09:56:06.820Z,8.80
2022-11-12T09:58:52.547Z,8.10
2022-11-12T10:01:53.703Z,7.73
2022-11-12T10:05:21.159Z,7.80
2022-11-12T10:08:25.092Z,7.10
2022-11-12T10:11:28.239Z,8.13
2022-11-12T10:14:28.326Z,9.00
2022-11-12T10:17:31.814Z,12.53
2022-11-12T10:20:23.826Z,9.03
2022-11-12T10:23:45.939Z,10.87
2022-11-12T10:26:33.080Z,8.07
2022-11-12T10:29:25.893Z,8.83
2022-11-12T10:32:15.692Z,7.60
2022-11-12T10:35:00.892Z,8.47
2022-11-12T10:37:58.999Z,8.07
2022-11-12T10:40:44.517Z,7.30
2022-11-12T10:43:29.759Z,10.57
2022-11-12T10:46:26.316Z,11.50
2022-11-12T10:49:14.752Z,8.73
2022-11-12T10:51:59.932Z,7.47
2022-11-12T10:54:46.218Z,8.50
2022-11-12T10:57:34.076Z,8.60
2022-11-12T11:00:20.928Z,10.37
2022-11-12T11:03:21.567Z,8.90
2022-11-12T11:06:21.097Z,8.73
2022-11-12T11:09:12.302Z,8.77
2022-11-12T11:11:57.687Z,9.77
2022-11-12T11:14:44.470Z,9.97
2022-11-12T11:17:30.420Z,10.80
2022-11-12T11:20:25.595Z,18.63
2022-11-12T11:23:32.407Z,8.50
2022-11-12T11:26:54.372Z,8.27
2022-11-12T11:29:54.445Z,8.87
2022-11-12T11:32:57.896Z,9.87
2022-11-12T11:36:02.322Z,9.53
2022-11-12T11:38:59.717Z,10.33
2022-11-12T11:41:44.740Z,10.73
2022-11-12T11:44:57.766Z,10.00
2022-11-12T11:48:15.475Z,9.93
2022-11-12T11:51:26.261Z,9.57
2022-11-12T11:54:23.659Z,9.40
2022-11-12T11:57:15.656Z,8.93
2022-11-12T12:00:16.460Z,7.17
2022-11-12T12:03:18.426Z,8.07
2022-11-12T12:06:22.029Z,8.00
2022-11-12T12:09:27.302Z,7.97
2022-11-12T12:12:33.395Z,9.73
2022-11-12T12:15:38.860Z,9.60
2022-11-12T12:19:01.641Z,11.00
2022-11-12T12:21:50.088Z,10.70
2022-11-12T12:24:47.347Z,9.17
2022-11-12T12:27:37.083Z,9.83
2022-11-12T12:30:24.960Z,10.47
2022-11-12T12:33:25.764Z,10.37
2022-11-12T12:36:18.080Z,10.30
2022-11-12T12:39:12.787Z,11.73
2022-11-12T12:42:12.555Z,12.63
2022-11-12T12:45:19.504Z,10.83
2022-11-12T12:48:08.893Z,10.33
2022-11-12T12:50:54.347Z,11.97
2022-11-12T12:53:40.617Z,10.90
2022-11-12T12:56:28.574Z,12.73
2022-11-12T12:59:21.923Z,11.80
2022-11-12T13:02:21.306Z,11.97
2022-11-12T13:05:21.613Z,12.13
2022-11-12T13:08:13.687Z,12.30
2022-11-12T13:10:59.632Z,13.20
2022-11-12T13:13:44.818Z,12.53
2022-11-12T13:16:57.058Z,13.30
2022-11-12T13:19:54.389Z,13.23
2022-11-12T13:22:39.656Z,12.40
2022-11-12T13:25:28.471Z,14.00
2022-11-12T13:28:14.312Z,14.00
2022-11-12T13:31:01.612Z,13.70
2022-11-12T13:33:47.567Z,12.63
2022-11-12T13:36:33.055Z,14.20
2022-11-12T13:39:20.223Z,16.83
2022-11-12T13:42:34.743Z,12.90
2022-11-12T13:45:27.313Z,13.17
2022-11-12T13:48:18.088Z,13.23
2022-11-12T13:51:07.475Z,13.60
2022-11-12T13:53:52.838Z,12.43
2022-11-12T13:56:39.046Z,14.40
2022-11-12T13:59:26.096Z,15.23
2022-11-12T14:02:21.063Z,14.03
2022-11-12T14:05:17.381Z,13.63
2022-11-12T14:08:14.943Z,13.10
2022-11-12T14:11:15.517Z,12.53
2022-11-12T14:14:37.177Z,13.93
2022-11-12T14:17:40.358Z,13.53
2022-11-12T14:20:26.105Z,14.13
2022-11-12T14:23:18.825Z,13.27
2022-11-12T14:26:07.193Z,12.07
2022-11-12T14:28:56.934Z,14.47
2022-11-12T14:31:42.439Z,14.93
2022-11-12T14:34:34.689Z,15.53
2022-11-12T14:37:43.015Z,15.10
2022-11-12T14:40:31.766Z,14.37
2022-11-12T14:43:27.133Z,15.60
2022-11-12T14:46:43.488Z,13.83
2022-11-12T14:49:44.776Z,15.77
2022-11-12T14:52:40.678Z,14.53
2022-11-12T14:55:35.556Z,14.50
2022-11-12T14:58:23.027Z,15.53
2022-11-12T15:04:52.513Z,15.13
2022-11-12T15:08:01.875Z,16.60
2022-11-12T15:10:47.554Z,16.10
2022-11-12T15:13:40.106Z,17.47
2022-11-12T15:16:34.087Z,15.17
2022-11-12T15:19:23.360Z,15.67
2022-11-12T15:22:20.104Z,16.50
2022-11-12T15:25:24.775Z,18.07
2022-11-12T15:28:21.465Z,18.43
2022-11-12T15:31:21.615Z,19.00
2022-11-12T15:34:32.150Z,17.60
2022-11-12T15:37:17.289Z,15.67
2022-11-12T15:40:11.433Z,17.23
2022-11-12T15:42:57.923Z,16.17
2022-11-12T15:45:43.504Z,16.53
2022-11-12T15:48:28.767Z,14.67
2022-11-12T15:51:16.138Z,15.17
2022-11-12T15:54:01.554Z,15.33
2022-11-12T15:56:47.651Z,15.97
2022-11-12T15:59:32.898Z,17.67
2022-11-12T16:02:18.026Z,19.13
2022-11-12T16:05:03.097Z,21.13
2022-11-12T16:07:48.643Z,17.30
2022-11-12T16:10:34.338Z,15.83
2022-11-12T16:13:33.153Z,16.40
2022-11-12T16:16:18.819Z,18.07
2022-11-12T16:19:04.103Z,22.53
2022-11-12T16:21:49.682Z,16.17
2022-11-12T16:24:35.062Z,18.90
2022-11-12T16:27:22.656Z,18.13
2022-11-12T16:30:20.455Z,17.93
2022-11-12T16:33:05.842Z,18.07
2022-11-12T16:35:51.390Z,20.53
2022-11-12T16:38:36.374Z,17.53
2022-11-12T16:41:21.852Z,16.47
2022-11-12T16:44:07.260Z,18.13
2022-11-12T16:46:52.519Z,18.60
2022-11-12T16:49:39.020Z,21.97
2022-11-12T16:52:24.340Z,17.40
2022-11-12T16:55:10.014Z,25.80
2022-11-12T16:57:55.182Z,18.07
2022-11-12T17:00:41.893Z,16.30
2022-11-12T17:03:27.666Z,17.93
2022-11-12T17:06:13.123Z,14.73
2022-11-12T17:08:58.626Z,23.10
2022-11-12T17:11:43.686Z,19.37
2022-11-12T17:14:28.938Z,17.70
2022-11-12T17:17:14.195Z,20.37
2022-11-12T17:19:59.797Z,19.90
2022-11-12T17:22:45.343Z,20.33
2022-11-12T17:25:30.704Z,19.77
2022-11-12T17:28:16.032Z,20.70
2022-11-12T17:31:11.374Z,21.63
2022-11-12T17:33:56.796Z,21.60
2022-11-12T17:36:43.807Z,19.57
2022-11-12T17:39:29.721Z,25.10
2022-11-12T17:42:15.067Z,18.80
2022-11-12T17:45:00.387Z,18.03
2022-11-12T17:47:45.990Z,22.13
2022-11-12T17:50:31.110Z,22.40
2022-11-12T17:53:16.987Z,19.07
2022-11-12T17:56:02.969Z,18.87
2022-11-12T17:58:51.806Z,23.13
2022-11-12T18:01:37.899Z,20.80
2022-11-12T18:04:24.087Z,22.60
2022-11-12T18:07:09.723Z,21.63
2022-11-12T18:09:55.104Z,19.37
2022-11-12T18:12:40.647Z,20.77
2022-11-12T18:15:25.919Z,23.53
2022-11-12T18:18:11.263Z,21.20
2022-11-12T18:20:57.058Z,20.87
2022-11-12T18:23:45.339Z,21.87
2022-11-12T18:26:30.806Z,19.73
2022-11-12T18:29:15.957Z,20.27
2022-11-12T18:32:01.864Z,19.07
2022-11-12T18:34:47.287Z,21.93
2022-11-12T18:37:33.526Z,22.43
2022-11-12T18:40:19.869Z,19.27
2022-11-12T18:43:05.025Z,19.63
2022-11-12T18:45:59.005Z,19.50
2022-11-12T18:48:44.278Z,22.33
2022-11-12T18:51:29.666Z,25.30
2022-11-12T18:54:16.150Z,22.40
2022-11-12T18:57:01.341Z,22.67
2022-11-12T18:59:47.835Z,22.33
2022-11-12T19:02:33.298Z,20.73
2022-11-12T19:05:20.942Z,19.20
2022-11-12T19:08:06.095Z,21.27
2022-11-12T19:11:00.651Z,19.97
2022-11-12T19:13:49.297Z,21.47
2022-11-12T19:16:35.454Z,21.63
2022-11-12T19:19:20.504Z,27.90
2022-11-12T19:22:05.891Z,22.67
2022-11-12T19:24:51.079Z,37.90
2022-11-12T19:27:36.198Z,24.07
2022-11-12T19:30:21.733Z,22.27
2022-11-12T19:33:07.193Z,21.83
2022-11-12T19:35:52.324Z,22.60
2022-11-12T19:38:37.786Z,22.73
2022-11-12T19:41:24.192Z,22.40
2022-11-12T19:44:12.256Z,23.90
2022-11-12T19:46:57.592Z,28.33
2022-11-12T19:49:42.994Z,29.00
2022-11-12T19:52:28.361Z,21.87
2022-11-12T19:55:13.757Z,22.70
2022-11-12T19:57:59.610Z,22.83
2022-11-12T20:00:45.002Z,21.83
2022-11-12T20:03:30.496Z,24.10
2022-11-12T20:06:19.212Z,21.13
2022-11-12T20:09:04.793Z,20.57
2022-11-12T20:11:51.062Z,23.60
2022-11-12T20:14:37.036Z,19.67
2022-11-12T20:17:22.138Z,24.93
2022-11-12T20:20:09.336Z,22.83
2022-11-12T20:22:54.584Z,22.93
2022-11-12T20:25:39.952Z,18.97
2022-11-12T20:28:25.391Z,21.60
2022-11-12T20:31:12.091Z,22.23
2022-11-12T20:33:57.356Z,19.03
2022-11-12T20:36:42.451Z,21.40
2022-11-12T20:39:27.460Z,17.77
2022-11-12T20:42:12.878Z,19.37
2022-11-12T20:44:57.840Z,18.67
2022-11-12T20:47:43.280Z,18.17
2022-11-12T20:50:28.516Z,21.67
2022-11-12T20:53:13.947Z,20.77
2022-11-12T20:56:07.864Z,19.27
2022-11-12T20:58:53.552Z,18.27
2022-11-12T21:01:38.762Z,19.33
2022-11-12T21:04:24.827Z,19.53
2022-11-12T21:07:10.218Z,17.50
2022-11-12T21:09:55.691Z,19.43
2022-11-12T21:12:40.888Z,20.60
2022-11-12T21:15:26.281Z,23.33
2022-11-12T21:18:11.777Z,19.80
2022-11-12T21:21:01.767Z,21.50
2022-11-12T21:23:49.829Z,18.97
2022-11-12T21:26:35.505Z,19.47
2022-11-12T21:29:20.952Z,19.50
2022-11-12T21:32:06.404Z,20.57
2022-11-12T21:34:52.705Z,20.23
2022-11-12T21:37:38.153Z,19.70
2022-11-12T21:40:25.049Z,16.47
2022-11-12T21:43:10.171Z,20.03
2022-11-12T21:45:55.642Z,28.97
2022-11-12T21:48:41.186Z,25.00
2022-11-12T21:51:29.089Z,21.27
2022-11-12T21:54:14.995Z,22.43
2022-11-12T21:57:00.016Z,21.77
2022-11-12T21:59:45.572Z,25.23
2022-11-12T22:02:30.602Z,24.07
2022-11-12T22:05:16.118Z,22.50
2022-11-12T22:08:01.502Z,24.63
2022-11-12T22:10:47.121Z,26.50
2022-11-12T22:13:33.560Z,21.83
2022-11-12T22:16:24.298Z,23.23
2022-11-12T22:19:12.762Z,25.10
2022-11-12T22:21:58.285Z,24.87
2022-11-12T22:24:43.628Z,22.90
2022-11-12T22:27:31.390Z,22.10
2022-11-12T22:30:16.879Z,27.00
2022-11-12T22:33:01.872Z,23.57
2022-11-12T22:35:47.042Z,23.03
2022-11-12T22:38:43.066Z,23.43
2022-11-12T22:41:30.832Z,22.40
2022-11-12T22:44:16.227Z,22.03
2022-11-12T22:47:02.612Z,22.73
2022-11-12T22:49:48.834Z,23.77
2022-11-12T22:52:33.906Z,22.63
2022-11-12T22:55:19.254Z,21.57
2022-11-12T22:58:04.396Z,21.67
2022-11-12T23:00:49.948Z,22.90
2022-11-12T23:03:37.318Z,20.87
2022-11-12T23:06:22.996Z,33.00
2022-11-12T23:09:14.713Z,20.50
2022-11-12T23:11:59.707Z,21.77
2022-11-12T23:14:44.784Z,21.07
2022-11-12T23:17:30.342Z,21.10
2022-11-12T23:20:16.000Z,21.17
2022-11-12T23:23:01.165Z,22.63
2022-11-12T23:25:46.881Z,20.87
2022-11-12T23:28:33.676Z,22.90
2022-11-12T23:31:22.026Z,19.87
2022-11-12T23:34:07.361Z,19.20
2022-11-12T23:36:52.819Z,19.83
2022-11-12T23:39:38.294Z,17.80
2022-11-12T23:42:23.761Z,19.73
2022-11-12T23:45:09.892Z,17.40
2022-11-12T23:47:57.076Z,17.10
2022-11-12T23:50:42.741Z,18.40
2022-11-12T23:53:27.978Z,17.80
2022-11-12T23:56:15.456Z,17.53
2022-11-12T23:59:00.815Z,18.07
